Baldwin, Texas
Current Conditions -  °F | °C
As of 6:35 AM on Thursday 29 Jan 2015 (Local Time) from KASL Reporting Station
NA  
Wind Chill: 53°   Ceiling: NA
Heat Index: 53°   Visibility: NA
Dew Point: 51°   Wind: 7mph
Humidity: 92%   Direction: 190°S
Pressure: 30.14"   Gusts: NA
Location:  32.6187°N, 94.1782°W
Report Text: KASL 291235Z AUTO 19006KT 12/11 A3014 RMK AO1 T01180105
Loading
Personal Weather Stations






























Interactive Weather Map New forecast layout! Learn more

10-Day Weather Forecast

Advertisements
Track Severe Weather on mobile